sensor_id;sensor_type;location;lat;lon;timestamp;temperature;humidity
42261;DHT22;27926;48.062;7.474;2022-07-23T00:02:24;20.50;99.90
42261;DHT22;27926;48.062;7.474;2022-07-23T00:04:48;20.50;99.90
42261;DHT22;27926;48.062;7.474;2022-07-23T00:07:13;20.50;99.90
42261;DHT22;27926;48.062;7.474;2022-07-23T00:09:38;20.50;99.90
42261;DHT22;27926;48.062;7.474;2022-07-23T00:12:03;20.40;99.90
42261;DHT22;27926;48.062;7.474;2022-07-23T00:14:28;20.40;99.90
42261;DHT22;27926;48.062;7.474;2022-07-23T00:16:52;20.40;99.90
42261;DHT22;27926;48.062;7.474;2022-07-23T00:19:17;20.40;99.90
42261;DHT22;27926;48.062;7.474;2022-07-23T00:21:42;20.50;99.90
42261;DHT22;27926;48.062;7.474;2022-07-23T00:24:06;20.50;99.90
42261;DHT22;27926;48.062;7.474;2022-07-23T00:26:31;19.60;99.90
42261;DHT22;27926;48.062;7.474;2022-07-23T00:28:56;20.60;99.90
42261;DHT22;27926;48.062;7.474;2022-07-23T00:31:20;20.60;99.90
42261;DHT22;27926;48.062;7.474;2022-07-23T00:33:45;20.50;99.90
42261;DHT22;27926;48.062;7.474;2022-07-23T00:36:10;20.30;99.90
42261;DHT22;27926;48.062;7.474;2022-07-23T00:38:34;20.20;99.90
42261;DHT22;27926;48.062;7.474;2022-07-23T00:40:59;20.30;99.90
42261;DHT22;27926;48.062;7.474;2022-07-23T00:43:24;20.30;99.90
42261;DHT22;27926;48.062;7.474;2022-07-23T00:45:49;20.30;99.90
42261;DHT22;27926;48.062;7.474;2022-07-23T00:48:14;20.40;99.90
42261;DHT22;27926;48.062;7.474;2022-07-23T00:50:38;20.40;99.90
42261;DHT22;27926;48.062;7.474;2022-07-23T00:53:04;20.50;99.90
42261;DHT22;27926;48.062;7.474;2022-07-23T00:55:29;20.50;99.90
42261;DHT22;27926;48.062;7.474;2022-07-23T00:57:53;20.60;99.90
42261;DHT22;27926;48.062;7.474;2022-07-23T01:00:19;20.50;99.90
42261;DHT22;27926;48.062;7.474;2022-07-23T01:02:44;20.50;99.90
42261;DHT22;27926;48.062;7.474;2022-07-23T01:05:09;20.40;99.90
42261;DHT22;27926;48.062;7.474;2022-07-23T01:07:34;20.40;99.90
42261;DHT22;27926;48.062;7.474;2022-07-23T01:09:59;20.50;99.90
42261;DHT22;27926;48.062;7.474;2022-07-23T01:12:24;20.50;99.90
42261;DHT22;27926;48.062;7.474;2022-07-23T01:14:59;20.50;99.90
42261;DHT22;27926;48.062;7.474;2022-07-23T01:17:24;20.50;99.90
42261;DHT22;27926;48.062;7.474;2022-07-23T01:19:51;20.40;99.90
42261;DHT22;27926;48.062;7.474;2022-07-23T01:22:18;20.80;99.90
42261;DHT22;27926;48.062;7.474;2022-07-23T01:24:43;20.40;99.90
42261;DHT22;27926;48.062;7.474;2022-07-23T01:27:08;20.40;99.90
42261;DHT22;27926;48.062;7.474;2022-07-23T01:29:32;20.30;99.90
42261;DHT22;27926;48.062;7.474;2022-07-23T01:31:57;20.30;99.90
42261;DHT22;27926;48.062;7.474;2022-07-23T01:34:22;20.20;99.90
42261;DHT22;27926;48.062;7.474;2022-07-23T01:36:46;20.20;99.90
42261;DHT22;27926;48.062;7.474;2022-07-23T01:39:11;20.20;99.90
42261;DHT22;27926;48.062;7.474;2022-07-23T01:41:36;20.20;99.90
42261;DHT22;27926;48.062;7.474;2022-07-23T01:44:01;20.30;99.90
42261;DHT22;27926;48.062;7.474;2022-07-23T01:46:25;20.30;99.90
42261;DHT22;27926;48.062;7.474;2022-07-23T01:48:50;20.30;99.90
42261;DHT22;27926;48.062;7.474;2022-07-23T01:51:15;20.30;99.90
42261;DHT22;27926;48.062;7.474;2022-07-23T01:53:41;20.30;99.90
42261;DHT22;27926;48.062;7.474;2022-07-23T01:56:05;20.20;99.90
42261;DHT22;27926;48.062;7.474;2022-07-23T01:58:30;20.30;99.90
42261;DHT22;27926;48.062;7.474;2022-07-23T02:00:55;20.30;99.90
42261;DHT22;27926;48.062;7.474;2022-07-23T02:03:21;20.30;99.90
42261;DHT22;27926;48.062;7.474;2022-07-23T02:05:46;20.20;99.90
42261;DHT22;27926;48.062;7.474;2022-07-23T02:08:10;20.10;99.90
42261;DHT22;27926;48.062;7.474;2022-07-23T02:10:35;19.90;99.90
42261;DHT22;27926;48.062;7.474;2022-07-23T02:13:00;19.80;99.90
42261;DHT22;27926;48.062;7.474;2022-07-23T02:15:25;19.80;99.90
42261;DHT22;27926;48.062;7.474;2022-07-23T02:17:49;19.80;99.90
42261;DHT22;27926;48.062;7.474;2022-07-23T02:20:14;19.80;99.90
42261;DHT22;27926;48.062;7.474;2022-07-23T02:22:39;19.80;99.90
42261;DHT22;27926;48.062;7.474;2022-07-23T02:25:05;19.70;99.90
42261;DHT22;27926;48.062;7.474;2022-07-23T02:27:30;19.60;99.90
42261;DHT22;27926;48.062;7.474;2022-07-23T02:29:55;20.60;99.90
42261;DHT22;27926;48.062;7.474;2022-07-23T02:32:19;19.60;99.90
42261;DHT22;27926;48.062;7.474;2022-07-23T02:34:45;19.60;99.90
42261;DHT22;27926;48.062;7.474;2022-07-23T02:37:10;19.70;99.90
42261;DHT22;27926;48.062;7.474;2022-07-23T02:39:38;19.60;99.90
42261;DHT22;27926;48.062;7.474;2022-07-23T02:42:03;19.90;99.90
42261;DHT22;27926;48.062;7.474;2022-07-23T02:44:28;19.80;99.90
42261;DHT22;27926;48.062;7.474;2022-07-23T02:46:52;19.80;99.90
42261;DHT22;27926;48.062;7.474;2022-07-23T02:49:17;19.80;99.90
42261;DHT22;27926;48.062;7.474;2022-07-23T02:51:41;19.80;99.90
42261;DHT22;27926;48.062;7.474;2022-07-23T02:54:07;19.80;99.90
42261;DHT22;27926;48.062;7.474;2022-07-23T02:56:31;19.90;99.90
42261;DHT22;27926;48.062;7.474;2022-07-23T02:58:56;19.80;99.90
42261;DHT22;27926;48.062;7.474;2022-07-23T03:01:21;19.80;99.90
42261;DHT22;27926;48.062;7.474;2022-07-23T03:03:45;19.90;99.90
42261;DHT22;27926;48.062;7.474;2022-07-23T03:06:10;19.80;99.90
42261;DHT22;27926;48.062;7.474;2022-07-23T03:08:34;19.80;99.90
42261;DHT22;27926;48.062;7.474;2022-07-23T03:10:59;19.70;99.90
42261;DHT22;27926;48.062;7.474;2022-07-23T03:13:24;19.60;99.90
42261;DHT22;27926;48.062;7.474;2022-07-23T03:15:48;19.60;99.90
42261;DHT22;27926;48.062;7.474;2022-07-23T03:18:13;19.60;99.90
42261;DHT22;27926;48.062;7.474;2022-07-23T03:20:38;19.70;99.90
42261;DHT22;27926;48.062;7.474;2022-07-23T03:23:02;19.70;99.90
42261;DHT22;27926;48.062;7.474;2022-07-23T03:25:27;19.70;99.90
42261;DHT22;27926;48.062;7.474;2022-07-23T03:27:52;19.80;99.90
42261;DHT22;27926;48.062;7.474;2022-07-23T03:30:16;19.80;99.90
42261;DHT22;27926;48.062;7.474;2022-07-23T03:32:41;19.80;99.90
42261;DHT22;27926;48.062;7.474;2022-07-23T03:35:06;19.80;99.90
42261;DHT22;27926;48.062;7.474;2022-07-23T03:37:31;19.80;99.90
42261;DHT22;27926;48.062;7.474;2022-07-23T03:39:55;19.80;99.90
42261;DHT22;27926;48.062;7.474;2022-07-23T03:42:20;19.80;99.90
42261;DHT22;27926;48.062;7.474;2022-07-23T03:44:45;19.80;99.90
42261;DHT22;27926;48.062;7.474;2022-07-23T03:47:09;19.60;99.90
42261;DHT22;27926;48.062;7.474;2022-07-23T03:49:34;19.60;99.90
42261;DHT22;27926;48.062;7.474;2022-07-23T03:51:59;19.50;99.90
42261;DHT22;27926;48.062;7.474;2022-07-23T03:54:24;19.50;99.90
42261;DHT22;27926;48.062;7.474;2022-07-23T03:56:48;19.40;99.90
42261;DHT22;27926;48.062;7.474;2022-07-23T03:59:13;19.40;99.90
42261;DHT22;27926;48.062;7.474;2022-07-23T04:01:38;19.40;99.90
42261;DHT22;27926;48.062;7.474;2022-07-23T04:04:02;19.40;99.90
42261;DHT22;27926;48.062;7.474;2022-07-23T04:06:27;19.40;99.90
42261;DHT22;27926;48.062;7.474;2022-07-23T04:08:52;19.50;99.90
42261;DHT22;27926;48.062;7.474;2022-07-23T04:11:16;19.50;99.90
42261;DHT22;27926;48.062;7.474;2022-07-23T04:13:41;19.40;99.90
42261;DHT22;27926;48.062;7.474;2022-07-23T04:16:06;19.40;99.90
42261;DHT22;27926;48.062;7.474;2022-07-23T04:18:30;19.40;99.90
42261;DHT22;27926;48.062;7.474;2022-07-23T04:20:55;19.40;99.90
42261;DHT22;27926;48.062;7.474;2022-07-23T04:23:20;19.40;99.90
42261;DHT22;27926;48.062;7.474;2022-07-23T04:25:45;19.50;99.90
42261;DHT22;27926;48.062;7.474;2022-07-23T04:28:09;19.60;99.90
42261;DHT22;27926;48.062;7.474;2022-07-23T04:30:34;19.70;99.90
42261;DHT22;27926;48.062;7.474;2022-07-23T04:32:59;19.80;99.90
42261;DHT22;27926;48.062;7.474;2022-07-23T04:35:24;19.90;99.90
42261;DHT22;27926;48.062;7.474;2022-07-23T04:37:48;20.00;99.90
42261;DHT22;27926;48.062;7.474;2022-07-23T04:40:13;20.10;99.90
42261;DHT22;27926;48.062;7.474;2022-07-23T04:42:38;20.20;99.90
42261;DHT22;27926;48.062;7.474;2022-07-23T04:45:03;20.30;99.90
42261;DHT22;27926;48.062;7.474;2022-07-23T04:47:28;20.30;99.90
42261;DHT22;27926;48.062;7.474;2022-07-23T04:49:52;20.40;99.90
42261;DHT22;27926;48.062;7.474;2022-07-23T04:52:17;20.50;99.90
42261;DHT22;27926;48.062;7.474;2022-07-23T04:54:42;20.50;99.90
42261;DHT22;27926;48.062;7.474;2022-07-23T04:57:06;20.50;99.90
42261;DHT22;27926;48.062;7.474;2022-07-23T04:59:31;20.70;99.90
42261;DHT22;27926;48.062;7.474;2022-07-23T05:01:56;20.90;99.90
42261;DHT22;27926;48.062;7.474;2022-07-23T05:04:20;21.00;99.90
42261;DHT22;27926;48.062;7.474;2022-07-23T05:06:45;21.10;99.90
42261;DHT22;27926;48.062;7.474;2022-07-23T05:09:09;21.20;99.90
42261;DHT22;27926;48.062;7.474;2022-07-23T05:11:34;21.40;99.90
42261;DHT22;27926;48.062;7.474;2022-07-23T05:13:59;21.50;99.90
42261;DHT22;27926;48.062;7.474;2022-07-23T05:16:23;21.50;99.90
42261;DHT22;27926;48.062;7.474;2022-07-23T05:18:48;21.60;99.90
42261;DHT22;27926;48.062;7.474;2022-07-23T05:21:12;21.70;99.90
42261;DHT22;27926;48.062;7.474;2022-07-23T05:23:37;21.80;99.90
42261;DHT22;27926;48.062;7.474;2022-07-23T05:26:02;22.20;99.90
42261;DHT22;27926;48.062;7.474;2022-07-23T05:28:26;22.40;99.90
42261;DHT22;27926;48.062;7.474;2022-07-23T05:30:51;22.50;99.90
42261;DHT22;27926;48.062;7.474;2022-07-23T05:33:18;22.60;99.90
42261;DHT22;27926;48.062;7.474;2022-07-23T05:35:43;22.60;99.90
42261;DHT22;27926;48.062;7.474;2022-07-23T05:38:08;22.60;99.90
42261;DHT22;27926;48.062;7.474;2022-07-23T05:40:32;22.60;99.90
42261;DHT22;27926;48.062;7.474;2022-07-23T05:42:57;22.70;99.90
42261;DHT22;27926;48.062;7.474;2022-07-23T05:45:22;22.70;99.90
42261;DHT22;27926;48.062;7.474;2022-07-23T05:47:48;22.60;99.90
42261;DHT22;27926;48.062;7.474;2022-07-23T05:50:13;22.50;99.90
42261;DHT22;27926;48.062;7.474;2022-07-23T05:52:39;22.50;99.90
42261;DHT22;27926;48.062;7.474;2022-07-23T05:55:04;22.50;99.90
42261;DHT22;27926;48.062;7.474;2022-07-23T05:57:28;22.80;99.90
42261;DHT22;27926;48.062;7.474;2022-07-23T05:59:53;23.20;99.90
42261;DHT22;27926;48.062;7.474;2022-07-23T06:02:18;23.60;99.90
42261;DHT22;27926;48.062;7.474;2022-07-23T06:04:42;24.00;99.90
42261;DHT22;27926;48.062;7.474;2022-07-23T06:07:07;24.20;99.90
42261;DHT22;27926;48.062;7.474;2022-07-23T06:09:31;24.70;99.90
42261;DHT22;27926;48.062;7.474;2022-07-23T06:11:56;25.10;99.90
42261;DHT22;27926;48.062;7.474;2022-07-23T06:14:20;25.70;99.90
42261;DHT22;27926;48.062;7.474;2022-07-23T06:16:45;26.40;99.90
42261;DHT22;27926;48.062;7.474;2022-07-23T06:19:10;27.10;99.90
42261;DHT22;27926;48.062;7.474;2022-07-23T06:21:34;27.50;99.90
42261;DHT22;27926;48.062;7.474;2022-07-23T06:23:59;27.90;99.90
42261;DHT22;27926;48.062;7.474;2022-07-23T06:26:24;28.10;99.90
42261;DHT22;27926;48.062;7.474;2022-07-23T06:28:48;28.00;99.90
42261;DHT22;27926;48.062;7.474;2022-07-23T06:31:13;27.50;99.90
42261;DHT22;27926;48.062;7.474;2022-07-23T06:33:37;27.10;99.90
42261;DHT22;27926;48.062;7.474;2022-07-23T06:36:02;26.80;99.90
42261;DHT22;27926;48.062;7.474;2022-07-23T06:38:27;26.40;99.90
42261;DHT22;27926;48.062;7.474;2022-07-23T06:40:52;26.00;99.90
42261;DHT22;27926;48.062;7.474;2022-07-23T06:43:16;25.70;99.90
42261;DHT22;27926;48.062;7.474;2022-07-23T06:45:41;25.60;99.90
42261;DHT22;27926;48.062;7.474;2022-07-23T06:48:06;25.40;99.90
42261;DHT22;27926;48.062;7.474;2022-07-23T06:50:30;25.20;99.90
42261;DHT22;27926;48.062;7.474;2022-07-23T06:52:55;25.10;99.90
42261;DHT22;27926;48.062;7.474;2022-07-23T06:55:20;25.20;99.90
42261;DHT22;27926;48.062;7.474;2022-07-23T06:57:44;25.50;99.90
42261;DHT22;27926;48.062;7.474;2022-07-23T07:00:10;25.70;99.90
42261;DHT22;27926;48.062;7.474;2022-07-23T07:02:34;26.00;99.90
42261;DHT22;27926;48.062;7.474;2022-07-23T07:05:01;26.20;99.90
42261;DHT22;27926;48.062;7.474;2022-07-23T07:07:26;26.60;99.90
42261;DHT22;27926;48.062;7.474;2022-07-23T07:09:51;27.10;99.90
42261;DHT22;27926;48.062;7.474;2022-07-23T07:12:15;27.50;99.90
42261;DHT22;27926;48.062;7.474;2022-07-23T07:14:40;27.70;99.90
42261;DHT22;27926;48.062;7.474;2022-07-23T07:17:04;27.70;99.90
42261;DHT22;27926;48.062;7.474;2022-07-23T07:19:29;28.00;99.90
42261;DHT22;27926;48.062;7.474;2022-07-23T07:21:54;28.30;99.90
42261;DHT22;27926;48.062;7.474;2022-07-23T07:24:18;28.60;99.90
42261;DHT22;27926;48.062;7.474;2022-07-23T07:26:43;28.30;99.90
42261;DHT22;27926;48.062;7.474;2022-07-23T07:29:08;28.00;99.90
42261;DHT22;27926;48.062;7.474;2022-07-23T07:31:32;27.60;99.90
42261;DHT22;27926;48.062;7.474;2022-07-23T07:33:58;27.60;99.90
42261;DHT22;27926;48.062;7.474;2022-07-23T07:36:23;27.60;99.90
42261;DHT22;27926;48.062;7.474;2022-07-23T07:38:47;27.60;99.90
42261;DHT22;27926;48.062;7.474;2022-07-23T07:41:12;27.50;99.90
42261;DHT22;27926;48.062;7.474;2022-07-23T07:43:37;27.50;99.90
42261;DHT22;27926;48.062;7.474;2022-07-23T07:46:02;27.50;99.90
42261;DHT22;27926;48.062;7.474;2022-07-23T07:48:27;27.60;99.90
42261;DHT22;27926;48.062;7.474;2022-07-23T07:50:52;27.60;99.90
42261;DHT22;27926;48.062;7.474;2022-07-23T07:53:16;27.90;99.90
42261;DHT22;27926;48.062;7.474;2022-07-23T07:55:41;28.20;99.90
42261;DHT22;27926;48.062;7.474;2022-07-23T07:58:05;28.70;99.90
42261;DHT22;27926;48.062;7.474;2022-07-23T08:00:30;29.00;99.90
42261;DHT22;27926;48.062;7.474;2022-07-23T08:02:55;28.70;99.90
42261;DHT22;27926;48.062;7.474;2022-07-23T08:05:22;28.50;99.90
42261;DHT22;27926;48.062;7.474;2022-07-23T08:07:47;28.40;99.90
42261;DHT22;27926;48.062;7.474;2022-07-23T08:10:11;28.50;99.90
42261;DHT22;27926;48.062;7.474;2022-07-23T08:12:44;28.50;99.90
42261;DHT22;27926;48.062;7.474;2022-07-23T08:15:10;28.50;99.90
42261;DHT22;27926;48.062;7.474;2022-07-23T08:17:35;28.40;99.90
42261;DHT22;27926;48.062;7.474;2022-07-23T08:20:00;28.40;99.90
42261;DHT22;27926;48.062;7.474;2022-07-23T08:22:24;28.30;99.90
42261;DHT22;27926;48.062;7.474;2022-07-23T08:24:49;28.30;99.90
42261;DHT22;27926;48.062;7.474;2022-07-23T08:27:14;28.20;99.90
42261;DHT22;27926;48.062;7.474;2022-07-23T08:29:38;28.20;99.90
42261;DHT22;27926;48.062;7.474;2022-07-23T08:32:03;28.20;99.90
42261;DHT22;27926;48.062;7.474;2022-07-23T08:34:28;28.30;99.90
42261;DHT22;27926;48.062;7.474;2022-07-23T08:36:52;28.20;99.90
42261;DHT22;27926;48.062;7.474;2022-07-23T08:39:17;28.10;99.90
42261;DHT22;27926;48.062;7.474;2022-07-23T08:41:41;27.90;99.90
42261;DHT22;27926;48.062;7.474;2022-07-23T08:44:07;27.90;99.90
42261;DHT22;27926;48.062;7.474;2022-07-23T08:46:33;28.20;99.90
42261;DHT22;27926;48.062;7.474;2022-07-23T08:48:58;28.60;99.90
42261;DHT22;27926;48.062;7.474;2022-07-23T08:51:26;28.80;99.90
42261;DHT22;27926;48.062;7.474;2022-07-23T08:53:51;28.90;99.90
42261;DHT22;27926;48.062;7.474;2022-07-23T08:56:16;29.20;99.90
42261;DHT22;27926;48.062;7.474;2022-07-23T08:58:41;29.40;99.90
42261;DHT22;27926;48.062;7.474;2022-07-23T09:01:05;29.20;99.90
42261;DHT22;27926;48.062;7.474;2022-07-23T09:03:33;28.90;99.90
42261;DHT22;27926;48.062;7.474;2022-07-23T09:05:59;28.80;99.90
42261;DHT22;27926;48.062;7.474;2022-07-23T09:08:40;29.00;99.50
42261;DHT22;27926;48.062;7.474;2022-07-23T09:11:16;29.10;98.20
42261;DHT22;27926;48.062;7.474;2022-07-23T09:18:41;29.30;96.80
42261;DHT22;27926;48.062;7.474;2022-07-23T09:26:25;29.20;96.00
42261;DHT22;27926;48.062;7.474;2022-07-23T09:29:05;29.20;95.40
42261;DHT22;27926;48.062;7.474;2022-07-23T09:31:43;29.20;96.20
42261;DHT22;27926;48.062;7.474;2022-07-23T09:34:14;29.20;94.30
42261;DHT22;27926;48.062;7.474;2022-07-23T09:36:39;29.20;96.30
42261;DHT22;27926;48.062;7.474;2022-07-23T09:39:05;29.10;95.50
42261;DHT22;27926;48.062;7.474;2022-07-23T09:41:38;29.30;95.30
42261;DHT22;27926;48.062;7.474;2022-07-23T09:44:07;29.30;95.10
42261;DHT22;27926;48.062;7.474;2022-07-23T09:46:33;29.50;96.30
42261;DHT22;27926;48.062;7.474;2022-07-23T09:48:58;29.60;95.20
42261;DHT22;27926;48.062;7.474;2022-07-23T09:51:44;29.50;95.50
42261;DHT22;27926;48.062;7.474;2022-07-23T09:54:25;29.60;95.00
42261;DHT22;27926;48.062;7.474;2022-07-23T09:56:51;29.70;95.20
42261;DHT22;27926;48.062;7.474;2022-07-23T09:59:16;29.80;94.40
42261;DHT22;27926;48.062;7.474;2022-07-23T10:01:42;29.70;95.30
42261;DHT22;27926;48.062;7.474;2022-07-23T10:04:07;29.70;95.60
42261;DHT22;27926;48.062;7.474;2022-07-23T10:06:33;29.70;96.40
42261;DHT22;27926;48.062;7.474;2022-07-23T10:08:59;29.60;96.70
42261;DHT22;27926;48.062;7.474;2022-07-23T10:11:27;29.80;95.10
42261;DHT22;27926;48.062;7.474;2022-07-23T10:13:53;30.10;96.50
42261;DHT22;27926;48.062;7.474;2022-07-23T10:16:23;30.40;96.80
42261;DHT22;27926;48.062;7.474;2022-07-23T10:18:48;30.30;95.50
42261;DHT22;27926;48.062;7.474;2022-07-23T10:21:18;30.20;95.20
42261;DHT22;27926;48.062;7.474;2022-07-23T10:29:55;30.20;95.40
42261;DHT22;27926;48.062;7.474;2022-07-23T10:32:45;30.20;94.30
42261;DHT22;27926;48.062;7.474;2022-07-23T10:35:29;30.20;94.10
42261;DHT22;27926;48.062;7.474;2022-07-23T10:38:02;30.40;95.00
42261;DHT22;27926;48.062;7.474;2022-07-23T10:40:31;30.90;94.60
42261;DHT22;27926;48.062;7.474;2022-07-23T10:42:59;30.70;93.90
42261;DHT22;27926;48.062;7.474;2022-07-23T10:45:34;31.00;93.70
42261;DHT22;27926;48.062;7.474;2022-07-23T10:48:19;31.00;92.90
42261;DHT22;27926;48.062;7.474;2022-07-23T10:51:14;31.00;91.80
42261;DHT22;27926;48.062;7.474;2022-07-23T10:56:15;30.80;92.00
42261;DHT22;27926;48.062;7.474;2022-07-23T10:58:46;30.70;92.40
42261;DHT22;27926;48.062;7.474;2022-07-23T11:01:31;30.60;91.60
42261;DHT22;27926;48.062;7.474;2022-07-23T11:03:57;30.90;92.10
42261;DHT22;27926;48.062;7.474;2022-07-23T11:06:23;31.00;91.70
42261;DHT22;27926;48.062;7.474;2022-07-23T11:09:23;30.90;92.30
42261;DHT22;27926;48.062;7.474;2022-07-23T11:11:48;30.60;93.20
42261;DHT22;27926;48.062;7.474;2022-07-23T11:14:12;30.40;93.30
42261;DHT22;27926;48.062;7.474;2022-07-23T11:16:46;30.10;93.50
42261;DHT22;27926;48.062;7.474;2022-07-23T11:19:12;29.90;93.00
42261;DHT22;27926;48.062;7.474;2022-07-23T11:24:09;29.80;92.90
42261;DHT22;27926;48.062;7.474;2022-07-23T11:34:40;30.60;93.00
42261;DHT22;27926;48.062;7.474;2022-07-23T11:37:07;30.80;92.60
42261;DHT22;27926;48.062;7.474;2022-07-23T11:39:33;30.90;92.00
42261;DHT22;27926;48.062;7.474;2022-07-23T11:41:59;31.10;91.80
42261;DHT22;27926;48.062;7.474;2022-07-23T11:44:37;31.10;91.20
42261;DHT22;27926;48.062;7.474;2022-07-23T11:47:10;30.90;91.60
42261;DHT22;27926;48.062;7.474;2022-07-23T11:49:36;30.40;91.70
42261;DHT22;27926;48.062;7.474;2022-07-23T11:52:10;30.30;92.30
42261;DHT22;27926;48.062;7.474;2022-07-23T11:54:40;30.10;93.20
42261;DHT22;27926;48.062;7.474;2022-07-23T11:57:10;30.10;92.60
42261;DHT22;27926;48.062;7.474;2022-07-23T11:59:36;30.10;92.80
42261;DHT22;27926;48.062;7.474;2022-07-23T12:02:03;30.40;91.90
42261;DHT22;27926;48.062;7.474;2022-07-23T12:04:45;30.70;93.40
42261;DHT22;27926;48.062;7.474;2022-07-23T12:07:26;30.90;91.90
42261;DHT22;27926;48.062;7.474;2022-07-23T12:09:52;30.90;91.40
42261;DHT22;27926;48.062;7.474;2022-07-23T12:12:17;30.90;92.10
42261;DHT22;27926;48.062;7.474;2022-07-23T12:15:08;31.10;91.60
42261;DHT22;27926;48.062;7.474;2022-07-23T12:17:36;30.70;91.00
42261;DHT22;27926;48.062;7.474;2022-07-23T12:20:04;30.30;91.40
42261;DHT22;27926;48.062;7.474;2022-07-23T12:22:44;29.90;91.90
42261;DHT22;27926;48.062;7.474;2022-07-23T12:25:12;29.60;92.00
42261;DHT22;27926;48.062;7.474;2022-07-23T12:27:36;29.20;93.00
42261;DHT22;27926;48.062;7.474;2022-07-23T12:30:25;29.10;93.80
42261;DHT22;27926;48.062;7.474;2022-07-23T12:32:54;28.70;93.50
42261;DHT22;27926;48.062;7.474;2022-07-23T12:35:19;28.60;93.40
42261;DHT22;27926;48.062;7.474;2022-07-23T12:37:46;28.50;93.80
42261;DHT22;27926;48.062;7.474;2022-07-23T12:40:23;28.50;93.90
42261;DHT22;27926;48.062;7.474;2022-07-23T12:42:48;28.40;93.40
42261;DHT22;27926;48.062;7.474;2022-07-23T12:45:13;28.40;93.50
42261;DHT22;27926;48.062;7.474;2022-07-23T12:48:03;28.50;93.20
42261;DHT22;27926;48.062;7.474;2022-07-23T12:50:51;28.60;93.00
42261;DHT22;27926;48.062;7.474;2022-07-23T12:53:22;28.70;93.00
42261;DHT22;27926;48.062;7.474;2022-07-23T12:55:48;29.10;92.80
42261;DHT22;27926;48.062;7.474;2022-07-23T12:58:18;29.40;92.50
42261;DHT22;27926;48.062;7.474;2022-07-23T13:01:01;29.60;93.20
42261;DHT22;27926;48.062;7.474;2022-07-23T13:03:32;29.80;92.50
42261;DHT22;27926;48.062;7.474;2022-07-23T13:05:57;29.80;93.00
42261;DHT22;27926;48.062;7.474;2022-07-23T13:08:24;29.50;91.80
42261;DHT22;27926;48.062;7.474;2022-07-23T13:10:49;29.30;92.80
42261;DHT22;27926;48.062;7.474;2022-07-23T13:13:15;29.30;92.80
42261;DHT22;27926;48.062;7.474;2022-07-23T13:15:40;29.30;92.20
42261;DHT22;27926;48.062;7.474;2022-07-23T13:18:04;29.60;92.10
42261;DHT22;27926;48.062;7.474;2022-07-23T13:20:29;29.90;92.00
42261;DHT22;27926;48.062;7.474;2022-07-23T13:22:55;30.10;92.20
42261;DHT22;27926;48.062;7.474;2022-07-23T13:25:21;30.30;92.40
42261;DHT22;27926;48.062;7.474;2022-07-23T13:27:45;30.20;92.00
42261;DHT22;27926;48.062;7.474;2022-07-23T13:30:10;30.40;92.60
42261;DHT22;27926;48.062;7.474;2022-07-23T13:32:35;30.10;92.30
42261;DHT22;27926;48.062;7.474;2022-07-23T13:35:00;29.90;92.40
42261;DHT22;27926;48.062;7.474;2022-07-23T13:37:24;29.80;93.00
42261;DHT22;27926;48.062;7.474;2022-07-23T13:39:49;29.60;92.30
42261;DHT22;27926;48.062;7.474;2022-07-23T13:42:14;29.40;92.70
42261;DHT22;27926;48.062;7.474;2022-07-23T13:44:38;29.40;93.50
42261;DHT22;27926;48.062;7.474;2022-07-23T13:47:03;29.70;93.60
42261;DHT22;27926;48.062;7.474;2022-07-23T13:49:28;30.00;94.00
42261;DHT22;27926;48.062;7.474;2022-07-23T13:51:52;30.20;92.90
42261;DHT22;27926;48.062;7.474;2022-07-23T13:54:17;30.40;92.40
42261;DHT22;27926;48.062;7.474;2022-07-23T13:56:41;30.50;94.10
42261;DHT22;27926;48.062;7.474;2022-07-23T13:59:06;30.60;92.30
42261;DHT22;27926;48.062;7.474;2022-07-23T14:01:31;30.60;93.10
42261;DHT22;27926;48.062;7.474;2022-07-23T14:03:55;30.60;92.40
42261;DHT22;27926;48.062;7.474;2022-07-23T14:06:20;30.60;93.20
42261;DHT22;27926;48.062;7.474;2022-07-23T14:08:45;30.40;92.30
42261;DHT22;27926;48.062;7.474;2022-07-23T14:11:09;30.30;91.70
42261;DHT22;27926;48.062;7.474;2022-07-23T14:13:34;30.10;91.70
42261;DHT22;27926;48.062;7.474;2022-07-23T14:15:58;29.90;91.80
42261;DHT22;27926;48.062;7.474;2022-07-23T14:18:23;29.70;92.60
42261;DHT22;27926;48.062;7.474;2022-07-23T14:20:48;29.50;92.90
42261;DHT22;27926;48.062;7.474;2022-07-23T14:23:12;29.30;92.90
42261;DHT22;27926;48.062;7.474;2022-07-23T14:25:37;29.40;94.00
42261;DHT22;27926;48.062;7.474;2022-07-23T14:28:02;29.70;93.90
42261;DHT22;27926;48.062;7.474;2022-07-23T14:30:26;29.90;93.50
42261;DHT22;27926;48.062;7.474;2022-07-23T14:32:51;30.10;93.20
42261;DHT22;27926;48.062;7.474;2022-07-23T14:35:16;30.30;93.60
42261;DHT22;27926;48.062;7.474;2022-07-23T14:37:41;30.20;92.10
42261;DHT22;27926;48.062;7.474;2022-07-23T14:40:06;30.20;93.20
42261;DHT22;27926;48.062;7.474;2022-07-23T14:42:30;30.10;92.50
42261;DHT22;27926;48.062;7.474;2022-07-23T14:44:55;30.10;93.30
42261;DHT22;27926;48.062;7.474;2022-07-23T14:47:20;30.10;93.30
42261;DHT22;27926;48.062;7.474;2022-07-23T14:49:44;30.10;93.40
42261;DHT22;27926;48.062;7.474;2022-07-23T14:52:09;30.20;92.50
42261;DHT22;27926;48.062;7.474;2022-07-23T14:54:34;30.30;92.20
42261;DHT22;27926;48.062;7.474;2022-07-23T14:56:59;30.30;92.20
42261;DHT22;27926;48.062;7.474;2022-07-23T14:59:25;30.40;92.40
42261;DHT22;27926;48.062;7.474;2022-07-23T15:01:49;30.40;92.60
42261;DHT22;27926;48.062;7.474;2022-07-23T15:04:14;30.40;91.80
42261;DHT22;27926;48.062;7.474;2022-07-23T15:06:39;30.30;92.10
42261;DHT22;27926;48.062;7.474;2022-07-23T15:09:04;30.20;92.80
42261;DHT22;27926;48.062;7.474;2022-07-23T15:11:29;30.20;93.10
42261;DHT22;27926;48.062;7.474;2022-07-23T15:13:57;30.10;91.50
42261;DHT22;27926;48.062;7.474;2022-07-23T15:16:22;29.80;92.30
42261;DHT22;27926;48.062;7.474;2022-07-23T15:18:46;29.80;92.80
42261;DHT22;27926;48.062;7.474;2022-07-23T15:21:11;29.80;93.10
42261;DHT22;27926;48.062;7.474;2022-07-23T15:23:36;29.90;93.40
42261;DHT22;27926;48.062;7.474;2022-07-23T15:26:03;30.10;92.40
42261;DHT22;27926;48.062;7.474;2022-07-23T15:28:28;30.10;91.50
42261;DHT22;27926;48.062;7.474;2022-07-23T15:30:53;30.10;92.30
42261;DHT22;27926;48.062;7.474;2022-07-23T15:33:18;30.20;92.90
42261;DHT22;27926;48.062;7.474;2022-07-23T15:35:43;30.20;91.50
42261;DHT22;27926;48.062;7.474;2022-07-23T15:38:07;30.30;91.70
42261;DHT22;27926;48.062;7.474;2022-07-23T15:40:32;30.30;91.10
42261;DHT22;27926;48.062;7.474;2022-07-23T15:42:57;30.30;91.10
42261;DHT22;27926;48.062;7.474;2022-07-23T15:45:21;30.10;90.70
42261;DHT22;27926;48.062;7.474;2022-07-23T15:47:47;30.00;90.50
42261;DHT22;27926;48.062;7.474;2022-07-23T15:50:13;29.90;91.60
42261;DHT22;27926;48.062;7.474;2022-07-23T15:52:37;29.90;91.20
42261;DHT22;27926;48.062;7.474;2022-07-23T15:55:03;29.90;91.20